sensor_id;sensor_type;location;lat;lon;timestamp;pressure;altitude;pressure_sealevel;temperature;humidity
84863;BME280;75117;43.224;76.776;2024-01-30T00:00:01;93080.63;;;-3.86;86.52
84863;BME280;75117;43.224;76.776;2024-01-30T00:00:17;93080.63;;;-3.86;86.67
84863;BME280;75117;43.224;76.776;2024-01-30T00:00:29;93078.81;;;-3.85;87.11
84863;BME280;75117;43.224;76.776;2024-01-30T00:00:41;93078.81;;;-3.85;86.53
84863;BME280;75117;43.224;76.776;2024-01-30T00:00:54;93084.75;;;-3.85;87.56
84863;BME280;75117;43.224;76.776;2024-01-30T00:01:06;93079.31;;;-3.88;87.51
84863;BME280;75117;43.224;76.776;2024-01-30T00:01:19;93080.63;;;-3.86;87.00
84863;BME280;75117;43.224;76.776;2024-01-30T00:01:31;93090.94;;;-3.86;86.28
84863;BME280;75117;43.224;76.776;2024-01-30T00:01:43;93075.66;;;-3.92;86.82
84863;BME280;75117;43.224;76.776;2024-01-30T00:01:56;93050.03;;;-4.04;86.00
84863;BME280;75117;43.224;76.776;2024-01-30T00:02:08;93093.75;;;-3.87;87.44
84863;BME280;75117;43.224;76.776;2024-01-30T00:02:21;93084.47;;;-3.88;87.22
84863;BME280;75117;43.224;76.776;2024-01-30T00:02:33;93081.06;;;-3.94;87.04
84863;BME280;75117;43.224;76.776;2024-01-30T00:02:45;93075.31;;;-4.01;86.62
84863;BME280;75117;43.224;76.776;2024-01-30T00:02:58;93088.28;;;-3.91;86.74
84863;BME280;75117;43.224;76.776;2024-01-30T00:03:10;93065.69;;;-4.11;87.56
84863;BME280;75117;43.224;76.776;2024-01-30T00:03:22;93088.78;;;-3.94;86.50
84863;BME280;75117;43.224;76.776;2024-01-30T00:03:35;93094.16;;;-3.95;87.03
84863;BME280;75117;43.224;76.776;2024-01-30T00:03:47;93079.72;;;-3.96;86.17
84863;BME280;75117;43.224;76.776;2024-01-30T00:04:00;93085.13;;;-3.98;87.50
84863;BME280;75117;43.224;76.776;2024-01-30T00:04:12;93101.63;;;-3.99;86.06
84863;BME280;75117;43.224;76.776;2024-01-30T00:04:24;93093.13;;;-3.99;87.63
84863;BME280;75117;43.224;76.776;2024-01-30T00:04:37;93102.38;;;-4.03;87.80
84863;BME280;75117;43.224;76.776;2024-01-30T00:04:49;93099.53;;;-4.02;87.63
84863;BME280;75117;43.224;76.776;2024-01-30T00:05:02;93092.81;;;-4.03;87.39
84863;BME280;75117;43.224;76.776;2024-01-30T00:05:15;93096.44;;;-4.04;87.47
84863;BME280;75117;43.224;76.776;2024-01-30T00:05:28;93095.09;;;-4.06;86.71
84863;BME280;75117;43.224;76.776;2024-01-30T00:05:40;93079.03;;;-4.14;86.61
84863;BME280;75117;43.224;76.776;2024-01-30T00:05:52;93090.19;;;-4.08;86.97
84863;BME280;75117;43.224;76.776;2024-01-30T00:06:05;93074.34;;;-4.22;87.78
84863;BME280;75117;43.224;76.776;2024-01-30T00:06:21;93093.78;;;-4.09;88.18
84863;BME280;75117;43.224;76.776;2024-01-30T00:06:34;93095.56;;;-4.10;86.95
84863;BME280;75117;43.224;76.776;2024-01-30T00:06:46;93092.47;;;-4.12;86.83
84863;BME280;75117;43.224;76.776;2024-01-30T00:07:02;93059.25;;;-4.35;86.50
84863;BME280;75117;43.224;76.776;2024-01-30T00:07:14;93074.28;;;-4.27;87.64
84863;BME280;75117;43.224;76.776;2024-01-30T00:07:26;93103.56;;;-4.11;87.43
84863;BME280;75117;43.224;76.776;2024-01-30T00:07:39;93097.38;;;-4.10;87.42
84863;BME280;75117;43.224;76.776;2024-01-30T00:07:51;93092.19;;;-4.15;87.35
84863;BME280;75117;43.224;76.776;2024-01-30T00:08:04;93098.41;;;-4.11;87.54
84863;BME280;75117;43.224;76.776;2024-01-30T00:08:16;93098.66;;;-4.13;86.54
84863;BME280;75117;43.224;76.776;2024-01-30T00:08:29;93091.16;;;-4.14;86.95
84863;BME280;75117;43.224;76.776;2024-01-30T00:08:41;93093.97;;;-4.16;86.66
84863;BME280;75117;43.224;76.776;2024-01-30T00:08:54;93095.00;;;-4.17;87.27
84863;BME280;75117;43.224;76.776;2024-01-30T00:09:06;93095.00;;;-4.17;86.83
84863;BME280;75117;43.224;76.776;2024-01-30T00:09:18;93104.81;;;-4.14;86.98
84863;BME280;75117;43.224;76.776;2024-01-30T00:09:31;93095.78;;;-4.16;86.54
84863;BME280;75117;43.224;76.776;2024-01-30T00:09:46;93086.91;;;-4.25;86.78
84863;BME280;75117;43.224;76.776;2024-01-30T00:10:00;93096.03;;;-4.18;86.71
84863;BME280;75117;43.224;76.776;2024-01-30T00:10:12;93100.16;;;-4.17;87.46
84863;BME280;75117;43.224;76.776;2024-01-30T00:10:24;93102.19;;;-4.19;87.01
84863;BME280;75117;43.224;76.776;2024-01-30T00:10:37;93092.91;;;-4.20;86.94
84863;BME280;75117;43.224;76.776;2024-01-30T00:10:49;93102.97;;;-4.18;86.36
84863;BME280;75117;43.224;76.776;2024-01-30T00:11:02;93097.81;;;-4.18;86.08
84863;BME280;75117;43.224;76.776;2024-01-30T00:11:15;93089.53;;;-4.20;87.71
84863;BME280;75117;43.224;76.776;2024-01-30T00:11:28;93101.41;;;-4.19;87.21
84863;BME280;75117;43.224;76.776;2024-01-30T00:11:40;93092.66;;;-4.18;86.85
84863;BME280;75117;43.224;76.776;2024-01-30T00:11:53;93083.06;;;-4.23;86.65
84863;BME280;75117;43.224;76.776;2024-01-30T00:12:06;93080.38;;;-4.33;87.34
84863;BME280;75117;43.224;76.776;2024-01-30T00:12:18;93093.63;;;-4.24;87.44
84863;BME280;75117;43.224;76.776;2024-01-30T00:12:31;93091.34;;;-4.21;86.38
84863;BME280;75117;43.224;76.776;2024-01-30T00:12:43;93090.56;;;-4.21;87.68
84863;BME280;75117;43.224;76.776;2024-01-30T00:12:56;93092.59;;;-4.23;87.10
84863;BME280;75117;43.224;76.776;2024-01-30T00:13:08;93084.88;;;-4.23;87.91
84863;BME280;75117;43.224;76.776;2024-01-30T00:13:21;93082.50;;;-4.30;87.56
84863;BME280;75117;43.224;76.776;2024-01-30T00:13:33;93097.75;;;-4.23;87.00
84863;BME280;75117;43.224;76.776;2024-01-30T00:13:46;93095.44;;;-4.25;86.73
84863;BME280;75117;43.224;76.776;2024-01-30T00:13:58;93095.44;;;-4.25;86.45
84863;BME280;75117;43.224;76.776;2024-01-30T00:14:10;93098.78;;;-4.24;87.69
84863;BME280;75117;43.224;76.776;2024-01-30T00:14:23;93098.25;;;-4.26;87.18
84863;BME280;75117;43.224;76.776;2024-01-30T00:14:35;93097.41;;;-4.32;86.17
84863;BME280;75117;43.224;76.776;2024-01-30T00:14:48;93105.97;;;-4.26;87.33
84863;BME280;75117;43.224;76.776;2024-01-30T00:15:00;93102.31;;;-4.30;87.65
84863;BME280;75117;43.224;76.776;2024-01-30T00:15:13;93106.44;;;-4.29;86.39
84863;BME280;75117;43.224;76.776;2024-01-30T00:15:25;93082.06;;;-4.44;86.37
84863;BME280;75117;43.224;76.776;2024-01-30T00:15:38;93101.31;;;-4.29;87.69
84863;BME280;75117;43.224;76.776;2024-01-30T00:16:02;93107.22;;;-4.29;87.13
84863;BME280;75117;43.224;76.776;2024-01-30T00:16:22;93113.94;;;-4.28;87.49
84863;BME280;75117;43.224;76.776;2024-01-30T00:16:36;93115.22;;;-4.30;86.95
84863;BME280;75117;43.224;76.776;2024-01-30T00:16:48;93120.13;;;-4.29;86.39
84863;BME280;75117;43.224;76.776;2024-01-30T00:17:01;93110.06;;;-4.30;86.47
84863;BME280;75117;43.224;76.776;2024-01-30T00:17:13;93106.16;;;-4.33;87.36
84863;BME280;75117;43.224;76.776;2024-01-30T00:17:25;93106.94;;;-4.32;86.54
84863;BME280;75117;43.224;76.776;2024-01-30T00:17:38;93123.47;;;-4.28;87.52
84863;BME280;75117;43.224;76.776;2024-01-30T00:17:50;93123.94;;;-4.31;87.54
84863;BME280;75117;43.224;76.776;2024-01-30T00:18:04;93120.13;;;-4.29;87.25
84863;BME280;75117;43.224;76.776;2024-01-30T00:18:16;93116.75;;;-4.29;87.08
84863;BME280;75117;43.224;76.776;2024-01-30T00:18:30;93123.47;;;-4.28;87.34
84863;BME280;75117;43.224;76.776;2024-01-30T00:18:43;93126.03;;;-4.28;87.17
84863;BME280;75117;43.224;76.776;2024-01-30T00:18:56;93120.06;;;-4.34;87.27
84863;BME280;75117;43.224;76.776;2024-01-30T00:19:09;93083.56;;;-4.48;87.60
84863;BME280;75117;43.224;76.776;2024-01-30T00:19:21;93118.56;;;-4.30;87.49
84863;BME280;75117;43.224;76.776;2024-01-30T00:19:34;93119.59;;;-4.31;87.10
84863;BME280;75117;43.224;76.776;2024-01-30T00:19:46;93128.09;;;-4.30;86.60
84863;BME280;75117;43.224;76.776;2024-01-30T00:19:59;93094.91;;;-4.49;86.87
84863;BME280;75117;43.224;76.776;2024-01-30T00:20:11;93126.28;;;-4.30;86.34
84863;BME280;75117;43.224;76.776;2024-01-30T00:20:24;93127.06;;;-4.29;86.57
84863;BME280;75117;43.224;76.776;2024-01-30T00:20:36;93122.94;;;-4.30;86.95
84863;BME280;75117;43.224;76.776;2024-01-30T00:20:48;93121.91;;;-4.29;86.17
84863;BME280;75117;43.224;76.776;2024-01-30T00:21:01;93131.44;;;-4.30;87.78
84863;BME280;75117;43.224;76.776;2024-01-30T00:21:13;93132.94;;;-4.34;87.49
84863;BME280;75117;43.224;76.776;2024-01-30T00:21:26;93129.09;;;-4.31;87.36
84863;BME280;75117;43.224;76.776;2024-01-30T00:21:38;93100.06;;;-4.49;86.97
84863;BME280;75117;43.224;76.776;2024-01-30T00:21:50;93119.81;;;-4.32;87.12
84863;BME280;75117;43.224;76.776;2024-01-30T00:22:03;93115.94;;;-4.35;86.47
84863;BME280;75117;43.224;76.776;2024-01-30T00:22:15;93120.78;;;-4.39;86.95
84863;BME280;75117;43.224;76.776;2024-01-30T00:22:28;93136.28;;;-4.34;86.24
84863;BME280;75117;43.224;76.776;2024-01-30T00:22:42;93126.22;;;-4.35;87.90
84863;BME280;75117;43.224;76.776;2024-01-30T00:22:54;93116.94;;;-4.36;86.53
84863;BME280;75117;43.224;76.776;2024-01-30T00:23:07;93083.94;;;-4.61;86.72
84863;BME280;75117;43.224;76.776;2024-01-30T00:23:19;93081.88;;;-4.59;87.06
84863;BME280;75117;43.224;76.776;2024-01-30T00:23:31;93121.81;;;-4.40;86.62
84863;BME280;75117;43.224;76.776;2024-01-30T00:23:44;93126.94;;;-4.40;87.51
84863;BME280;75117;43.224;76.776;2024-01-30T00:23:56;93117.38;;;-4.44;86.13
84863;BME280;75117;43.224;76.776;2024-01-30T00:24:09;93124.59;;;-4.41;88.02
84863;BME280;75117;43.224;76.776;2024-01-30T00:24:22;93091.66;;;-4.61;87.34
84863;BME280;75117;43.224;76.776;2024-01-30T00:24:34;93121.50;;;-4.43;87.28
84863;BME280;75117;43.224;76.776;2024-01-30T00:24:46;93118.16;;;-4.44;87.07
84863;BME280;75117;43.224;76.776;2024-01-30T00:24:59;93119.69;;;-4.43;87.14
84863;BME280;75117;43.224;76.776;2024-01-30T00:25:12;93128.75;;;-4.40;87.10
84863;BME280;75117;43.224;76.776;2024-01-30T00:25:24;93124.06;;;-4.43;86.59
84863;BME280;75117;43.224;76.776;2024-01-30T00:25:37;93126.41;;;-4.42;88.00
84863;BME280;75117;43.224;76.776;2024-01-30T00:25:50;93128.97;;;-4.42;86.73
84863;BME280;75117;43.224;76.776;2024-01-30T00:26:02;93122.03;;;-4.41;87.64
84863;BME280;75117;43.224;76.776;2024-01-30T00:26:15;93118.38;;;-4.45;87.37
84863;BME280;75117;43.224;76.776;2024-01-30T00:26:27;93124.06;;;-4.43;86.67
84863;BME280;75117;43.224;76.776;2024-01-30T00:26:40;93098.91;;;-4.58;87.30
84863;BME280;75117;43.224;76.776;2024-01-30T00:26:52;93119.69;;;-4.43;87.21
84863;BME280;75117;43.224;76.776;2024-01-30T00:27:05;93129.75;;;-4.41;86.84
84863;BME280;75117;43.224;76.776;2024-01-30T00:27:17;93122.28;;;-4.43;86.63
84863;BME280;75117;43.224;76.776;2024-01-30T00:27:29;93128.97;;;-4.42;88.03
84863;BME280;75117;43.224;76.776;2024-01-30T00:27:42;93127.94;;;-4.41;86.55
84863;BME280;75117;43.224;76.776;2024-01-30T00:27:54;93096.81;;;-4.61;87.60
84863;BME280;75117;43.224;76.776;2024-01-30T00:28:06;93128.75;;;-4.40;87.41
84863;BME280;75117;43.224;76.776;2024-01-30T00:28:19;93135.41;;;-4.44;87.39
84863;BME280;75117;43.224;76.776;2024-01-30T00:28:31;93117.00;;;-4.53;86.67
84863;BME280;75117;43.224;76.776;2024-01-30T00:28:44;93137.47;;;-4.41;87.22
84863;BME280;75117;43.224;76.776;2024-01-30T00:28:56;93134.38;;;-4.43;87.13
84863;BME280;75117;43.224;76.776;2024-01-30T00:29:08;93134.13;;;-4.42;87.66
84863;BME280;75117;43.224;76.776;2024-01-30T00:29:21;93138.75;;;-4.44;86.90
84863;BME280;75117;43.224;76.776;2024-01-30T00:29:34;93128.44;;;-4.44;86.72
84863;BME280;75117;43.224;76.776;2024-01-30T00:29:53;93133.81;;;-4.45;87.50
84863;BME280;75117;43.224;76.776;2024-01-30T00:30:06;93133.81;;;-4.45;87.40
84863;BME280;75117;43.224;76.776;2024-01-30T00:30:19;93124.78;;;-4.48;87.49
84863;BME280;75117;43.224;76.776;2024-01-30T00:30:32;93120.59;;;-4.54;87.23
84863;BME280;75117;43.224;76.776;2024-01-30T00:30:44;93146.94;;;-4.47;87.84
84863;BME280;75117;43.224;76.776;2024-01-30T00:30:57;93134.31;;;-4.48;86.63
84863;BME280;75117;43.224;76.776;2024-01-30T00:31:09;93138.38;;;-4.52;86.54
84863;BME280;75117;43.224;76.776;2024-01-30T00:31:24;93132.91;;;-4.56;86.23
84863;BME280;75117;43.224;76.776;2024-01-30T00:31:36;93114.00;;;-4.67;87.08
84863;BME280;75117;43.224;76.776;2024-01-30T00:31:49;93138.38;;;-4.52;87.42
84863;BME280;75117;43.224;76.776;2024-01-30T00:32:01;93150.47;;;-4.53;87.05
84863;BME280;75117;43.224;76.776;2024-01-30T00:32:14;93146.56;;;-4.55;86.79
84863;BME280;75117;43.224;76.776;2024-01-30T00:32:26;93131.31;;;-4.62;86.73
84863;BME280;75117;43.224;76.776;2024-01-30T00:32:39;93126.63;;;-4.65;87.11
84863;BME280;75117;43.224;76.776;2024-01-30T00:32:51;93129.81;;;-4.58;87.27
84863;BME280;75117;43.224;76.776;2024-01-30T00:33:04;93134.97;;;-4.58;87.68
84863;BME280;75117;43.224;76.776;2024-01-30T00:33:16;93134.19;;;-4.58;87.54
84863;BME280;75117;43.224;76.776;2024-01-30T00:33:29;93140.13;;;-4.58;87.82
84863;BME280;75117;43.224;76.776;2024-01-30T00:33:41;93123.34;;;-4.61;87.45
84863;BME280;75117;43.224;76.776;2024-01-30T00:33:54;93140.13;;;-4.58;87.29
84863;BME280;75117;43.224;76.776;2024-01-30T00:34:15;93137.22;;;-4.62;86.79
84863;BME280;75117;43.224;76.776;2024-01-30T00:34:28;93126.31;;;-4.69;87.58
84863;BME280;75117;43.224;76.776;2024-01-30T00:34:41;93137.47;;;-4.63;87.60
84863;BME280;75117;43.224;76.776;2024-01-30T00:34:54;93142.38;;;-4.62;87.65
84863;BME280;75117;43.224;76.776;2024-01-30T00:35:06;93142.38;;;-4.62;86.93
84863;BME280;75117;43.224;76.776;2024-01-30T00:35:19;93141.59;;;-4.62;86.69
84863;BME280;75117;43.224;76.776;2024-01-30T00:35:31;93138.25;;;-4.63;87.90
84863;BME280;75117;43.224;76.776;2024-01-30T00:35:44;93135.91;;;-4.64;86.63
84863;BME280;75117;43.224;76.776;2024-01-30T00:35:56;93151.13;;;-4.63;87.72
84863;BME280;75117;43.224;76.776;2024-01-30T00:36:09;93138.47;;;-4.64;87.42
84863;BME280;75117;43.224;76.776;2024-01-30T00:36:22;93135.69;;;-4.63;87.49
84863;BME280;75117;43.224;76.776;2024-01-30T00:36:35;93130.22;;;-4.66;87.48
84863;BME280;75117;43.224;76.776;2024-01-30T00:36:47;93139.25;;;-4.64;87.10
84863;BME280;75117;43.224;76.776;2024-01-30T00:36:59;93121.66;;;-4.72;86.89
84863;BME280;75117;43.224;76.776;2024-01-30T00:37:12;93138.25;;;-4.63;88.03
84863;BME280;75117;43.224;76.776;2024-01-30T00:37:24;93136.22;;;-4.61;88.01
84863;BME280;75117;43.224;76.776;2024-01-30T00:37:37;93139.56;;;-4.60;87.13
84863;BME280;75117;43.224;76.776;2024-01-30T00:37:49;93136.22;;;-4.61;88.64
84863;BME280;75117;43.224;76.776;2024-01-30T00:38:01;93129.75;;;-4.63;87.88
84863;BME280;75117;43.224;76.776;2024-01-30T00:38:14;93132.34;;;-4.63;87.22
84863;BME280;75117;43.224;76.776;2024-01-30T00:38:26;93140.59;;;-4.61;87.53
84863;BME280;75117;43.224;76.776;2024-01-30T00:38:39;93132.59;;;-4.60;87.55
84863;BME280;75117;43.224;76.776;2024-01-30T00:38:55;93113.06;;;-4.77;87.14
84863;BME280;75117;43.224;76.776;2024-01-30T00:39:07;93143.47;;;-4.57;87.20
84863;BME280;75117;43.224;76.776;2024-01-30T00:39:21;93137.75;;;-4.60;87.90
84863;BME280;75117;43.224;76.776;2024-01-30T00:39:33;93113.63;;;-4.75;88.00
84863;BME280;75117;43.224;76.776;2024-01-30T00:39:46;93135.50;;;-4.56;87.12
84863;BME280;75117;43.224;76.776;2024-01-30T00:39:58;93148.38;;;-4.56;87.96
84863;BME280;75117;43.224;76.776;2024-01-30T00:40:10;93116.50;;;-4.72;88.60
84863;BME280;75117;43.224;76.776;2024-01-30T00:40:27;93144.31;;;-4.52;88.27
84863;BME280;75117;43.224;76.776;2024-01-30T00:40:39;93152.81;;;-4.51;87.13
84863;BME280;75117;43.224;76.776;2024-01-30T00:40:52;93136.06;;;-4.54;88.15
84863;BME280;75117;43.224;76.776;2024-01-30T00:41:04;93136.28;;;-4.55;88.05
84863;BME280;75117;43.224;76.776;2024-01-30T00:41:19;93144.06;;;-4.50;88.01
84863;BME280;75117;43.224;76.776;2024-01-30T00:41:35;93144.84;;;-4.50;88.00
84863;BME280;75117;43.224;76.776;2024-01-30T00:41:47;93153.91;;;-4.47;87.50
84863;BME280;75117;43.224;76.776;2024-01-30T00:41:59;93147.97;;;-4.48;88.06
84863;BME280;75117;43.224;76.776;2024-01-30T00:42:12;93149.00;;;-4.49;86.38
84863;BME280;75117;43.224;76.776;2024-01-30T00:42:24;93156.16;;;-4.51;86.55
84863;BME280;75117;43.224;76.776;2024-01-30T00:42:37;93156.94;;;-4.50;86.82
84863;BME280;75117;43.224;76.776;2024-01-30T00:42:49;93162.09;;;-4.50;86.80
84863;BME280;75117;43.224;76.776;2024-01-30T00:43:02;93151.72;;;-4.55;87.49
84863;BME280;75117;43.224;76.776;2024-01-30T00:43:15;93155.06;;;-4.55;87.77
84863;BME280;75117;43.224;76.776;2024-01-30T00:43:27;93161.81;;;-4.54;87.97
84863;BME280;75117;43.224;76.776;2024-01-30T00:43:40;93158.22;;;-4.53;87.19
84863;BME280;75117;43.224;76.776;2024-01-30T00:43:52;93154.84;;;-4.53;88.58
84863;BME280;75117;43.224;76.776;2024-01-30T00:44:05;93158.22;;;-4.53;87.92
84863;BME280;75117;43.224;76.776;2024-01-30T00:44:17;93120.31;;;-4.74;87.11
84863;BME280;75117;43.224;76.776;2024-01-30T00:44:30;93159.75;;;-4.52;87.64
84863;BME280;75117;43.224;76.776;2024-01-30T00:44:43;93167.50;;;-4.52;87.50
84863;BME280;75117;43.224;76.776;2024-01-30T00:44:55;93149.72;;;-4.53;88.04
84863;BME280;75117;43.224;76.776;2024-01-30T00:45:15;93159.50;;;-4.50;87.31
84863;BME280;75117;43.224;76.776;2024-01-30T00:45:28;93161.09;;;-4.49;88.21
84863;BME280;75117;43.224;76.776;2024-01-30T00:45:40;93157.97;;;-4.51;88.68
84863;BME280;75117;43.224;76.776;2024-01-30T00:45:52;93173.97;;;-4.49;87.33
84863;BME280;75117;43.224;76.776;2024-01-30T00:46:05;93157.97;;;-4.51;87.28
84863;BME280;75117;43.224;76.776;2024-01-30T00:46:18;93128.34;;;-4.71;87.60
84863;BME280;75117;43.224;76.776;2024-01-30T00:46:30;93161.81;;;-4.54;87.36
84863;BME280;75117;43.224;76.776;2024-01-30T00:46:42;93165.69;;;-4.51;87.92
84863;BME280;75117;43.224;76.776;2024-01-30T00:46:55;93159.75;;;-4.52;88.92
84863;BME280;75117;43.224;76.776;2024-01-30T00:47:07;93156.09;;;-4.56;88.17
84863;BME280;75117;43.224;76.776;2024-01-30T00:47:19;93158.97;;;-4.52;88.27
84863;BME280;75117;43.224;76.776;2024-01-30T00:47:32;93135.84;;;-4.69;86.95
84863;BME280;75117;43.224;76.776;2024-01-30T00:47:44;93174.44;;;-4.52;88.18
84863;BME280;75117;43.224;76.776;2024-01-30T00:47:57;93162.59;;;-4.53;87.96
84863;BME280;75117;43.224;76.776;2024-01-30T00:48:09;93154.31;;;-4.55;87.37
84863;BME280;75117;43.224;76.776;2024-01-30T00:48:22;93152.75;;;-4.56;87.32
84863;BME280;75117;43.224;76.776;2024-01-30T00:48:34;93133.03;;;-4.68;87.52
84863;BME280;75117;43.224;76.776;2024-01-30T00:48:46;93129.59;;;-4.73;87.26
84863;BME280;75117;43.224;76.776;2024-01-30T00:48:59;93148.06;;;-4.60;87.23
84863;BME280;75117;43.224;76.776;2024-01-30T00:49:11;93148.63;;;-4.57;87.58
84863;BME280;75117;43.224;76.776;2024-01-30T00:49:24;93143.94;;;-4.61;87.64
84863;BME280;75117;43.224;76.776;2024-01-30T00:49:36;93155.00;;;-4.60;87.35
84863;BME280;75117;43.224;76.776;2024-01-30T00:49:49;93154.53;;;-4.57;88.65
84863;BME280;75117;43.224;76.776;2024-01-30T00:50:01;93151.97;;;-4.57;86.98
84863;BME280;75117;43.224;76.776;2024-01-30T00:50:14;93154.25;;;-4.61;87.53
84863;BME280;75117;43.224;76.776;2024-01-30T00:50:29;93151.41;;;-4.59;86.99
84863;BME280;75117;43.224;76.776;2024-01-30T00:50:41;93140.78;;;-4.68;87.55
84863;BME280;75117;43.224;76.776;2024-01-30T00:50:54;93133.97;;;-4.74;87.62
84863;BME280;75117;43.224;76.776;2024-01-30T00:51:06;93153.16;;;-4.65;87.87
84863;BME280;75117;43.224;76.776;2024-01-30T00:51:18;93147.78;;;-4.63;88.27
84863;BME280;75117;43.224;76.776;2024-01-30T00:51:31;93149.88;;;-4.60;87.75
84863;BME280;75117;43.224;76.776;2024-01-30T00:51:43;93153.22;;;-4.60;88.25
84863;BME280;75117;43.224;76.776;2024-01-30T00:51:56;93152.22;;;-4.58;87.52
84863;BME280;75117;43.224;76.776;2024-01-30T00:52:08;93155.00;;;-4.60;88.30
84863;BME280;75117;43.224;76.776;2024-01-30T00:52:20;93150.41;;;-4.58;87.76
84863;BME280;75117;43.224;76.776;2024-01-30T00:52:33;93159.94;;;-4.58;88.91
84863;BME280;75117;43.224;76.776;2024-01-30T00:52:45;93151.19;;;-4.57;88.34
84863;BME280;75117;43.224;76.776;2024-01-30T00:52:58;93152.75;;;-4.56;88.13
84863;BME280;75117;43.224;76.776;2024-01-30T00:53:10;93146.56;;;-4.55;88.37
84863;BME280;75117;43.224;76.776;2024-01-30T00:53:23;93151.50;;;-4.54;87.33
84863;BME280;75117;43.224;76.776;2024-01-30T00:53:35;93149.94;;;-4.55;88.50
84863;BME280;75117;43.224;76.776;2024-01-30T00:53:47;93142.75;;;-4.53;88.87
84863;BME280;75117;43.224;76.776;2024-01-30T00:54:00;93153.84;;;-4.52;88.27
84863;BME280;75117;43.224;76.776;2024-01-30T00:54:12;93157.97;;;-4.51;89.43
84863;BME280;75117;43.224;76.776;2024-01-30T00:54:25;93141.41;;;-4.55;88.75
84863;BME280;75117;43.224;76.776;2024-01-30T00:54:37;93145.03;;;-4.56;87.90
84863;BME280;75117;43.224;76.776;2024-01-30T00:54:49;93148.69;;;-4.52;87.75
84863;BME280;75117;43.224;76.776;2024-01-30T00:55:02;93141.41;;;-4.55;88.27
84863;BME280;75117;43.224;76.776;2024-01-30T00:55:15;93150.47;;;-4.53;88.55
84863;BME280;75117;43.224;76.776;2024-01-30T00:55:27;93141.41;;;-4.55;88.66
84863;BME280;75117;43.224;76.776;2024-01-30T00:55:40;93127.19;;;-4.63;89.35
84863;BME280;75117;43.224;76.776;2024-01-30T00:55:52;93145.09;;;-4.51;88.99
84863;BME280;75117;43.224;76.776;2024-01-30T00:56:04;93152.28;;;-4.53;88.98
84863;BME280;75117;43.224;76.776;2024-01-30T00:56:19;93156.16;;;-4.51;89.28
84863;BME280;75117;43.224;76.776;2024-01-30T00:56:31;93128.72;;;-4.62;88.17
84863;BME280;75117;43.224;76.776;2024-01-30T00:56:44;93147.41;;;-4.50;89.41
84863;BME280;75117;43.224;76.776;2024-01-30T00:56:56;93146.41;;;-4.49;87.62
84863;BME280;75117;43.224;76.776;2024-01-30T00:57:09;93152.34;;;-4.48;88.89
84863;BME280;75117;43.224;76.776;2024-01-30T00:57:21;93150.53;;;-4.48;88.00
84863;BME280;75117;43.224;76.776;2024-01-30T00:57:33;93152.34;;;-4.48;88.37
84863;BME280;75117;43.224;76.776;2024-01-30T00:57:46;93134.72;;;-4.56;89.21
84863;BME280;75117;43.224;76.776;2024-01-30T00:57:59;93149.00;;;-4.49;89.00
84863;BME280;75117;43.224;76.776;2024-01-30T00:58:11;93147.97;;;-4.48;89.15
84863;BME280;75117;43.224;76.776;2024-01-30T00:58:23;93143.84;;;-4.49;89.32
84863;BME280;75117;43.224;76.776;2024-01-30T00:58:36;93149.16;;;-4.55;88.88
84863;BME280;75117;43.224;76.776;2024-01-30T00:58:49;93150.53;;;-4.48;89.29
84863;BME280;75117;43.224;76.776;2024-01-30T00:59:01;93158.03;;;-4.46;88.26
84863;BME280;75117;43.224;76.776;2024-01-30T00:59:14;93147.72;;;-4.46;89.80
84863;BME280;75117;43.224;76.776;2024-01-30T00:59:26;93152.09;;;-4.47;89.56
84863;BME280;75117;43.224;76.776;2024-01-30T00:59:39;93152.09;;;-4.47;88.55
84863;BME280;75117;43.224;76.776;2024-01-30T00:59:51;93151.06;;;-4.46;88.11
84863;BME280;75117;43.224;76.776;2024-01-30T01:00:04;93154.91;;;-4.48;88.49
84863;BME280;75117;43.224;76.776;2024-01-30T01:00:18;93162.72;;;-4.43;88.81
84863;BME280;75117;43.224;76.776;2024-01-30T01:00:32;93155.50;;;-4.41;88.52
84863;BME280;75117;43.224;76.776;2024-01-30T01:00:45;93151.84;;;-4.45;89.43
84863;BME280;75117;43.224;76.776;2024-01-30T01:00:58;93153.19;;;-4.43;88.62
84863;BME280;75117;43.224;76.776;2024-01-30T01:01:10;93145.69;;;-4.44;88.15
84863;BME280;75117;43.224;76.776;2024-01-30T01:01:23;93149.38;;;-4.40;88.30
84863;BME280;75117;43.224;76.776;2024-01-30T01:01:35;93131.44;;;-4.52;89.36
84863;BME280;75117;43.224;76.776;2024-01-30T01:01:48;93149.38;;;-4.40;89.39
84863;BME280;75117;43.224;76.776;2024-01-30T01:02:00;93141.53;;;-4.45;89.51
84863;BME280;75117;43.224;76.776;2024-01-30T01:02:13;93136.88;;;-4.48;88.49
84863;BME280;75117;43.224;76.776;2024-01-30T01:02:27;93150.84;;;-4.44;88.79
84863;BME280;75117;43.224;76.776;2024-01-30T01:02:39;93156.78;;;-4.44;88.08
84863;BME280;75117;43.224;76.776;2024-01-30T01:02:51;93152.66;;;-4.45;88.71
84863;BME280;75117;43.224;76.776;2024-01-30T01:03:04;93148.75;;;-4.47;89.68
84863;BME280;75117;43.224;76.776;2024-01-30T01:03:16;93147.72;;;-4.46;89.64
84863;BME280;75117;43.224;76.776;2024-01-30T01:03:29;93123.59;;;-4.62;89.30
84863;BME280;75117;43.224;76.776;2024-01-30T01:03:41;93161.94;;;-4.44;89.37
84863;BME280;75117;43.224;76.776;2024-01-30T01:03:55;93147.19;;;-4.48;89.18
84863;BME280;75117;43.224;76.776;2024-01-30T01:04:07;93151.63;;;-4.44;89.90
84863;BME280;75117;43.224;76.776;2024-01-30T01:04:20;93143.91;;;-4.44;89.16
84863;BME280;75117;43.224;76.776;2024-01-30T01:04:39;93166.59;;;-4.41;89.48
84863;BME280;75117;43.224;76.776;2024-01-30T01:04:51;93156.28;;;-4.41;89.62
84863;BME280;75117;43.224;76.776;2024-01-30T01:05:04;93139.28;;;-4.42;89.59
84863;BME280;75117;43.224;76.776;2024-01-30T01:05:16;93140.06;;;-4.41;89.77
84863;BME280;75117;43.224;76.776;2024-01-30T01:05:29;93113.59;;;-4.58;89.71
84863;BME280;75117;43.224;76.776;2024-01-30T01:05:42;93145.22;;;-4.41;89.86
84863;BME280;75117;43.224;76.776;2024-01-30T01:05:54;93144.97;;;-4.40;88.46
84863;BME280;75117;43.224;76.776;2024-01-30T01:06:06;93135.41;;;-4.44;89.34
84863;BME280;75117;43.224;76.776;2024-01-30T01:06:19;93143.41;;;-4.41;89.62
84863;BME280;75117;43.224;76.776;2024-01-30T01:06:31;93139.06;;;-4.40;88.70
84863;BME280;75117;43.224;76.776;2024-01-30T01:06:44;93139.28;;;-4.42;89.34